createdAt,value
2018-04-25T00:00:56.928Z,14.10
2018-04-25T00:01:56.928Z,13.60
2018-04-25T00:02:56.922Z,15.50
2018-04-25T00:03:56.922Z,13.90
2018-04-25T00:04:56.922Z,14.00
2018-04-25T00:05:56.921Z,22.30
2018-04-25T00:06:56.914Z,21.90
2018-04-25T00:07:56.913Z,21.00
2018-04-25T00:08:56.910Z,68.20
2018-04-25T00:09:56.907Z,31.50
2018-04-25T00:10:56.906Z,16.40
2018-04-25T00:11:56.904Z,13.40
2018-04-25T00:12:56.902Z,11.20
2018-04-25T00:13:56.901Z,11.90
2018-04-25T00:14:56.898Z,21.00
2018-04-25T00:15:56.911Z,11.50
2018-04-25T00:16:56.897Z,10.80
2018-04-25T00:17:56.899Z,12.60
2018-04-25T00:18:56.894Z,10.80
2018-04-25T00:19:56.892Z,10.90
2018-04-25T00:20:56.884Z,12.00
2018-04-25T00:21:56.885Z,11.00
2018-04-25T00:22:56.881Z,10.20
2018-04-25T00:23:56.879Z,24.90
2018-04-25T00:24:56.876Z,12.70
2018-04-25T00:25:56.874Z,10.90
2018-04-25T00:26:56.873Z,13.80
2018-04-25T00:27:56.871Z,10.90
2018-04-25T00:28:56.869Z,11.40
2018-04-25T00:29:56.867Z,11.00
2018-04-25T00:30:56.868Z,10.80
2018-04-25T00:31:56.867Z,11.40
2018-04-25T00:32:56.859Z,65.80
2018-04-25T00:33:56.858Z,12.30
2018-04-25T00:34:56.856Z,35.60
2018-04-25T00:35:56.856Z,10.40
2018-04-25T00:36:56.852Z,16.30
2018-04-25T00:37:56.856Z,11.10
2018-04-25T00:38:56.852Z,11.50
2018-04-25T00:39:56.850Z,9.20
2018-04-25T00:40:56.843Z,9.80
2018-04-25T00:41:56.844Z,22.80
2018-04-25T00:42:56.844Z,10.90
2018-04-25T00:43:56.845Z,10.30
2018-04-25T00:44:56.836Z,11.60
2018-04-25T00:45:56.833Z,10.50
2018-04-25T00:46:56.832Z,10.50
2018-04-25T00:47:56.831Z,11.10
2018-04-25T00:48:56.828Z,9.70
2018-04-25T00:49:56.826Z,11.10
2018-04-25T00:50:56.823Z,10.10
2018-04-25T00:51:56.824Z,11.70
2018-04-25T00:52:56.820Z,13.70
2018-04-25T00:53:56.818Z,10.20
2018-04-25T00:54:56.816Z,10.30
2018-04-25T00:55:56.818Z,24.20
2018-04-25T00:56:56.816Z,10.30
2018-04-25T00:57:56.813Z,11.30
2018-04-25T00:58:56.808Z,12.50
2018-04-25T00:59:56.806Z,10.30
2018-04-25T01:00:56.807Z,9.70
2018-04-25T01:01:56.806Z,9.50
2018-04-25T01:02:56.800Z,10.30
2018-04-25T01:03:56.803Z,9.70
2018-04-25T01:04:56.796Z,9.90
2018-04-25T01:05:56.794Z,9.60
2018-04-25T01:06:56.794Z,9.60
2018-04-25T01:07:56.793Z,9.70
2018-04-25T01:08:56.787Z,9.90
2018-04-25T01:09:56.786Z,10.50
2018-04-25T01:10:56.788Z,23.80
2018-04-25T01:11:56.890Z,10.20
2018-04-25T01:12:56.779Z,10.30
2018-04-25T01:13:56.778Z,10.00
2018-04-25T01:14:56.781Z,9.60
2018-04-25T01:15:56.778Z,9.70
2018-04-25T01:16:56.771Z,9.90
2018-04-25T01:17:56.770Z,9.60
2018-04-25T01:18:56.769Z,9.70
2018-04-25T01:19:56.768Z,9.70
2018-04-25T01:20:56.764Z,10.30
2018-04-25T01:21:56.763Z,10.10
2018-04-25T01:22:56.766Z,10.00
2018-04-25T01:23:56.759Z,10.20
2018-04-25T01:24:56.757Z,9.60
2018-04-25T01:25:56.759Z,10.00
2018-04-25T01:26:56.754Z,10.00
2018-04-25T01:27:56.753Z,10.10
2018-04-25T01:28:56.752Z,10.10
2018-04-25T01:29:56.752Z,9.70
2018-04-25T01:30:56.745Z,10.20
2018-04-25T01:31:56.743Z,10.30
2018-04-25T01:32:56.745Z,9.70
2018-04-25T01:33:56.744Z,10.00
2018-04-25T01:34:56.737Z,10.00
2018-04-25T01:35:56.737Z,10.10
2018-04-25T01:36:56.733Z,10.30
2018-04-25T01:37:56.731Z,9.50
2018-04-25T01:38:56.730Z,9.90
2018-04-25T01:39:56.729Z,10.10
2018-04-25T01:40:56.730Z,10.00
2018-04-25T01:41:56.728Z,10.60
2018-04-25T01:42:56.722Z,9.50
2018-04-25T01:43:56.721Z,9.50
2018-04-25T01:44:56.718Z,9.20
2018-04-25T01:45:56.719Z,9.50
2018-04-25T01:46:56.715Z,9.80
2018-04-25T01:47:56.713Z,9.40
2018-04-25T01:48:56.710Z,10.30
2018-04-25T01:49:56.709Z,9.10
2018-04-25T01:50:56.707Z,9.50
2018-04-25T01:51:56.706Z,9.50
2018-04-25T01:52:56.707Z,10.10
2018-04-25T01:53:56.707Z,11.40
2018-04-25T01:54:56.703Z,9.80
2018-04-25T01:55:56.703Z,9.50
2018-04-25T01:56:56.695Z,9.20
2018-04-25T01:57:56.694Z,9.80
2018-04-25T01:58:56.691Z,10.40
2018-04-25T01:59:56.689Z,9.70
2018-04-25T02:00:56.688Z,9.60
2018-04-25T02:01:56.686Z,51.20
2018-04-25T02:02:56.684Z,13.00
2018-04-25T02:03:56.682Z,9.60
2018-04-25T02:04:56.680Z,9.80
2018-04-25T02:05:56.679Z,10.70
2018-04-25T02:06:56.681Z,10.40
2018-04-25T02:07:56.678Z,9.90
2018-04-25T02:08:56.673Z,10.10
2018-04-25T02:09:56.673Z,11.00
2018-04-25T02:10:56.668Z,9.60
2018-04-25T02:11:56.667Z,10.00
2018-04-25T02:12:56.668Z,9.70
2018-04-25T02:13:56.666Z,10.40
2018-04-25T02:14:56.662Z,10.50
2018-04-25T02:15:56.659Z,9.80
2018-04-25T02:16:56.657Z,10.00
2018-04-25T02:17:56.655Z,10.00
2018-04-25T02:18:56.652Z,10.10
2018-04-25T02:19:56.651Z,10.40
2018-04-25T02:20:56.649Z,10.20
2018-04-25T02:21:56.646Z,9.70
2018-04-25T02:22:56.645Z,10.20
2018-04-25T02:23:56.646Z,10.90
2018-04-25T02:24:56.644Z,10.80
2018-04-25T02:25:56.642Z,10.80
2018-04-25T02:26:56.641Z,10.80
2018-04-25T02:27:56.642Z,10.30
2018-04-25T02:28:56.635Z,10.60
2018-04-25T02:29:56.631Z,11.10
2018-04-25T02:30:56.629Z,11.10
2018-04-25T02:31:56.629Z,10.90
2018-04-25T02:32:56.626Z,11.00
2018-04-25T02:33:56.623Z,10.90
2018-04-25T02:34:56.623Z,10.60
2018-04-25T02:35:56.621Z,11.30
2018-04-25T02:36:56.617Z,10.60
2018-04-25T02:37:56.617Z,11.10
2018-04-25T02:38:56.617Z,10.80
2018-04-25T02:39:56.616Z,11.30
2018-04-25T02:40:56.609Z,11.30
2018-04-25T02:41:56.607Z,10.80
2018-04-25T02:42:56.606Z,11.30
2018-04-25T02:43:56.605Z,11.60
2018-04-25T02:44:56.605Z,11.60
2018-04-25T02:45:56.606Z,12.00
2018-04-25T02:46:56.600Z,12.60
2018-04-25T02:47:56.597Z,11.70
2018-04-25T02:48:56.597Z,11.90
2018-04-25T02:49:56.593Z,12.10
2018-04-25T02:50:56.591Z,11.80
2018-04-25T02:51:56.595Z,12.40
2018-04-25T02:52:56.588Z,33.20
2018-04-25T02:53:56.587Z,12.40
2018-04-25T02:54:56.585Z,12.50
2018-04-25T02:55:56.583Z,11.90
2018-04-25T02:56:56.584Z,12.40
2018-04-25T02:57:56.585Z,12.10
2018-04-25T02:58:56.624Z,12.40
2018-04-25T02:59:56.579Z,12.20
2018-04-25T03:00:56.575Z,11.70
2018-04-25T03:01:56.571Z,12.40
2018-04-25T03:02:56.570Z,12.70
2018-04-25T03:03:56.567Z,12.60
2018-04-25T03:04:56.565Z,12.40
2018-04-25T03:05:56.563Z,12.80
2018-04-25T03:06:56.562Z,14.20
2018-04-25T03:07:56.560Z,14.30
2018-04-25T03:08:56.561Z,14.00
2018-04-25T03:09:56.556Z,12.90
2018-04-25T03:10:56.558Z,13.40
2018-04-25T03:11:56.559Z,13.30
2018-04-25T03:12:56.549Z,13.00
2018-04-25T03:13:56.554Z,12.80
2018-04-25T03:14:56.546Z,15.50
2018-04-25T03:15:56.546Z,13.30
2018-04-25T03:16:56.581Z,13.70
2018-04-25T03:17:56.544Z,13.60
2018-04-25T03:18:56.539Z,13.30
2018-04-25T03:19:56.553Z,13.40
2018-04-25T03:20:56.535Z,13.20
2018-04-25T03:21:56.534Z,13.20
2018-04-25T03:22:56.530Z,14.10
2018-04-25T03:23:56.528Z,13.60
2018-04-25T03:24:56.526Z,13.90
2018-04-25T03:25:56.524Z,13.30
2018-04-25T03:26:56.523Z,13.60
2018-04-25T03:27:56.524Z,13.40
2018-04-25T03:28:56.597Z,14.50
2018-04-25T03:29:56.522Z,13.90
2018-04-25T03:30:56.519Z,13.80
2018-04-25T03:31:56.517Z,13.80
2018-04-25T03:32:56.511Z,13.60
2018-04-25T03:33:56.508Z,14.20
2018-04-25T03:34:56.507Z,14.10
2018-04-25T03:35:56.505Z,14.80
2018-04-25T03:36:56.502Z,13.50
2018-04-25T03:37:56.505Z,16.40
2018-04-25T03:38:56.499Z,14.60
2018-04-25T03:39:56.498Z,15.30
2018-04-25T03:40:56.495Z,13.70
2018-04-25T03:41:56.494Z,16.20
2018-04-25T03:42:56.496Z,14.20
2018-04-25T03:43:56.493Z,13.30
2018-04-25T03:44:56.487Z,13.50
2018-04-25T03:45:56.485Z,14.90
2018-04-25T03:46:56.483Z,14.70
2018-04-25T03:47:56.481Z,14.20
2018-04-25T03:48:56.480Z,35.60
2018-04-25T03:49:56.477Z,14.90
2018-04-25T03:50:56.480Z,15.20
2018-04-25T03:51:56.477Z,14.10
2018-04-25T03:52:56.471Z,14.50
2018-04-25T03:53:56.470Z,14.10
2018-04-25T03:54:56.471Z,13.90
2018-04-25T03:55:56.469Z,14.20
2018-04-25T03:56:56.463Z,14.50
2018-04-25T03:57:56.460Z,15.00
2018-04-25T03:58:56.458Z,13.30
2018-04-25T03:59:56.458Z,14.00
2018-04-25T04:00:56.453Z,16.40
2018-04-25T04:01:56.453Z,14.90
2018-04-25T04:02:56.457Z,13.30
2018-04-25T04:03:56.450Z,14.80
2018-04-25T04:04:56.447Z,14.90
2018-04-25T04:05:56.444Z,15.60
2018-04-25T04:06:56.444Z,15.60
2018-04-25T04:07:56.440Z,15.60
2018-04-25T04:08:56.442Z,14.20
2018-04-25T04:09:56.440Z,14.90
2018-04-25T04:10:56.435Z,16.30
2018-04-25T04:11:56.432Z,15.60
2018-04-25T04:12:56.474Z,15.40
2018-04-25T04:13:56.433Z,14.50
2018-04-25T04:14:56.426Z,17.20
2018-04-25T04:15:56.424Z,17.70
2018-04-25T04:16:56.421Z,14.50
2018-04-25T04:17:56.419Z,14.10
2018-04-25T04:18:56.419Z,13.70
2018-04-25T04:19:56.415Z,25.00
2018-04-25T04:20:56.414Z,16.20
2018-04-25T04:21:56.412Z,15.00
2018-04-25T04:22:56.413Z,15.60
2018-04-25T04:23:56.411Z,13.40
2018-04-25T04:24:56.492Z,24.10
2018-04-25T04:25:56.402Z,11.50
2018-04-25T04:26:56.405Z,11.90
2018-04-25T04:27:56.403Z,11.00
2018-04-25T04:28:56.396Z,12.20
2018-04-25T04:29:56.394Z,12.90
2018-04-25T04:30:56.394Z,10.40
2018-04-25T04:31:56.390Z,12.40
2018-04-25T04:32:56.389Z,11.20
2018-04-25T04:33:56.385Z,13.10
2018-04-25T04:34:56.384Z,13.00
2018-04-25T04:35:56.382Z,13.00
2018-04-25T04:36:56.379Z,13.00
2018-04-25T04:37:56.378Z,13.60
2018-04-25T04:38:56.376Z,12.50
2018-04-25T04:39:56.376Z,12.90
2018-04-25T04:40:56.374Z,11.10
2018-04-25T04:41:56.373Z,15.90
2018-04-25T04:42:56.366Z,13.50
2018-04-25T04:43:56.370Z,10.80
2018-04-25T04:44:56.369Z,11.60
2018-04-25T04:45:56.364Z,13.30
2018-04-25T04:46:56.359Z,38.20
2018-04-25T04:47:56.355Z,23.80
2018-04-25T04:48:56.354Z,19.20
2018-04-25T04:49:56.352Z,12.10
2018-04-25T04:50:56.359Z,11.90
2018-04-25T04:51:56.347Z,12.60
2018-04-25T04:52:56.348Z,12.30
2018-04-25T04:53:56.347Z,11.50
2018-04-25T04:54:56.341Z,10.90
2018-04-25T04:55:56.338Z,10.70
2018-04-25T04:56:56.336Z,10.00
2018-04-25T04:57:56.334Z,10.50
2018-04-25T04:58:56.337Z,11.10
2018-04-25T04:59:56.329Z,12.00
2018-04-25T05:00:56.326Z,9.80
2018-04-25T05:01:56.332Z,11.70
2018-04-25T05:02:56.322Z,14.70
2018-04-25T05:03:56.320Z,10.80
2018-04-25T05:04:56.321Z,11.00
2018-04-25T05:05:56.319Z,10.60
2018-04-25T05:06:56.321Z,10.60
2018-04-25T05:07:56.315Z,10.50
2018-04-25T05:08:56.308Z,34.90
2018-04-25T05:09:56.307Z,55.40
2018-04-25T05:10:56.305Z,24.70
2018-04-25T05:11:56.302Z,50.30
2018-04-25T05:12:56.301Z,55.30
2018-04-25T05:13:56.297Z,64.60
2018-04-25T05:14:56.295Z,94.50
2018-04-25T05:15:56.296Z,202.90
2018-04-25T05:16:56.290Z,154.60
2018-04-25T05:17:56.288Z,257.50
2018-04-25T05:18:56.291Z,324.70
2018-04-25T05:19:56.290Z,344.50
2018-04-25T05:20:56.281Z,447.40
2018-04-25T05:21:56.280Z,510.10
2018-04-25T05:22:56.280Z,597.20
2018-04-25T05:23:56.276Z,581.00
2018-04-25T05:24:56.276Z,755.20
2018-04-25T05:25:56.274Z,859.30
2018-04-25T05:26:56.269Z,944.60
2018-04-25T05:27:56.267Z,999.90
2018-04-25T05:28:56.263Z,999.90
2018-04-25T05:29:56.260Z,999.90
2018-04-25T05:30:56.259Z,999.90
2018-04-25T05:31:56.362Z,999.90
2018-04-25T05:32:56.253Z,999.90
2018-04-25T05:33:56.250Z,999.90
2018-04-25T05:34:56.251Z,999.90
2018-04-25T05:35:56.246Z,999.90
2018-04-25T05:36:56.249Z,999.90
2018-04-25T05:37:56.252Z,999.90
2018-04-25T05:38:56.242Z,999.90
2018-04-25T05:39:56.240Z,999.90
2018-04-25T05:40:56.233Z,999.90
2018-04-25T05:41:56.233Z,999.90
2018-04-25T05:42:56.232Z,999.90
2018-04-25T05:43:56.252Z,999.90
2018-04-25T05:44:56.222Z,999.90
2018-04-25T05:45:56.276Z,969.90
2018-04-25T05:46:56.219Z,999.90
2018-04-25T05:47:56.216Z,999.90
2018-04-25T05:48:56.218Z,999.90
2018-04-25T05:49:56.210Z,999.90
2018-04-25T05:50:56.212Z,999.90
2018-04-25T05:51:56.209Z,999.90
2018-04-25T05:52:56.202Z,999.90
2018-04-25T05:53:56.200Z,999.90
2018-04-25T05:54:56.201Z,999.90
2018-04-25T05:55:56.196Z,999.90
2018-04-25T05:56:56.191Z,25.40
2018-04-25T05:57:56.292Z,15.40
2018-04-25T05:58:56.190Z,10.70
2018-04-25T05:59:56.188Z,10.10
2018-04-25T06:00:56.180Z,10.30
2018-04-25T06:01:56.177Z,10.70
2018-04-25T06:02:56.179Z,10.60
2018-04-25T06:03:56.177Z,10.40
2018-04-25T06:04:56.169Z,10.60
2018-04-25T06:05:56.166Z,10.20
2018-04-25T06:06:56.165Z,10.40
2018-04-25T06:07:56.165Z,10.30
2018-04-25T06:08:56.158Z,10.70
2018-04-25T06:09:56.157Z,10.80
2018-04-25T06:10:56.153Z,11.30
2018-04-25T06:11:56.153Z,12.40
2018-04-25T06:12:56.148Z,11.40
2018-04-25T06:13:56.147Z,12.10
2018-04-25T06:14:56.143Z,11.50
2018-04-25T06:15:56.149Z,10.00
2018-04-25T06:16:56.141Z,9.20
2018-04-25T06:17:56.139Z,8.90
2018-04-25T06:18:56.135Z,8.40
2018-04-25T06:19:56.130Z,7.60
2018-04-25T06:20:56.130Z,7.90
2018-04-25T06:21:56.128Z,7.90
2018-04-25T06:22:56.121Z,7.50
2018-04-25T06:23:56.119Z,7.10
2018-04-25T06:24:56.116Z,11.20
2018-04-25T06:25:56.112Z,6.80
2018-04-25T06:26:56.110Z,7.30
2018-04-25T06:27:56.106Z,8.10
2018-04-25T06:28:56.106Z,8.30
2018-04-25T06:29:56.106Z,8.40
2018-04-25T06:30:56.103Z,10.40
2018-04-25T06:31:56.098Z,8.40
2018-04-25T06:32:56.091Z,7.50
2018-04-25T06:33:56.087Z,7.80
2018-04-25T06:34:56.089Z,6.90
2018-04-25T06:35:56.086Z,7.10
2018-04-25T06:36:56.082Z,6.80
2018-04-25T06:37:56.075Z,6.70
2018-04-25T06:38:56.073Z,6.20
2018-04-25T06:39:56.070Z,6.40
2018-04-25T06:40:56.066Z,6.20
2018-04-25T06:41:56.064Z,6.10
2018-04-25T06:42:56.060Z,6.10
2018-04-25T06:43:56.057Z,6.70
2018-04-25T06:44:56.077Z,6.00
2018-04-25T06:45:56.049Z,5.60
2018-04-25T06:46:56.046Z,5.10
2018-04-25T06:47:56.043Z,5.60
2018-04-25T06:48:56.043Z,5.50
2018-04-25T06:49:56.039Z,5.50
2018-04-25T06:50:56.034Z,5.00
2018-04-25T06:51:56.030Z,5.20
2018-04-25T06:52:56.031Z,4.80
2018-04-25T06:53:56.032Z,4.70
2018-04-25T06:54:56.021Z,4.50
2018-04-25T06:55:56.017Z,4.60
2018-04-25T06:56:56.013Z,4.40
2018-04-25T06:57:56.012Z,4.30
2018-04-25T06:58:56.011Z,4.20
2018-04-25T06:59:56.008Z,4.20
2018-04-25T07:00:56.001Z,3.70
2018-04-25T07:01:55.998Z,4.20
2018-04-25T07:02:55.996Z,3.70
2018-04-25T07:03:55.993Z,3.90
2018-04-25T07:04:55.997Z,4.40
2018-04-25T07:05:55.985Z,4.30
2018-04-25T07:06:55.983Z,3.50
2018-04-25T07:07:56.071Z,3.70
2018-04-25T07:08:55.978Z,4.00
2018-04-25T07:09:55.978Z,4.30
2018-04-25T07:10:55.980Z,4.30
2018-04-25T07:11:55.976Z,4.70
2018-04-25T07:12:55.966Z,5.00
2018-04-25T07:13:55.964Z,4.50
2018-04-25T07:14:55.962Z,4.60
2018-04-25T07:15:55.961Z,5.00
2018-04-25T07:16:55.963Z,5.60
2018-04-25T07:17:55.961Z,5.50
2018-04-25T07:18:55.953Z,5.30
2018-04-25T07:19:55.951Z,5.80
2018-04-25T07:20:55.949Z,6.20
2018-04-25T07:21:55.947Z,5.60
2018-04-25T07:22:55.944Z,5.50
2018-04-25T07:23:56.060Z,6.60
2018-04-25T07:24:55.941Z,6.40
2018-04-25T07:25:55.940Z,6.30
2018-04-25T07:26:55.937Z,5.90
2018-04-25T07:27:55.935Z,5.10
2018-04-25T07:28:55.937Z,5.20
2018-04-25T07:29:55.936Z,5.60
2018-04-25T07:30:55.934Z,5.40
2018-04-25T07:31:55.933Z,6.10
2018-04-25T07:32:55.928Z,5.80
2018-04-25T07:33:55.925Z,6.10
2018-04-25T07:34:55.925Z,5.80
2018-04-25T07:35:55.923Z,6.20
2018-04-25T07:36:55.922Z,7.10
2018-04-25T07:37:55.920Z,7.10
2018-04-25T07:38:55.919Z,7.50
2018-04-25T07:39:55.919Z,6.90
2018-04-25T07:40:55.915Z,6.70
2018-04-25T07:41:55.997Z,7.70
2018-04-25T07:42:55.918Z,8.70
2018-04-25T07:43:55.916Z,9.10
2018-04-25T07:44:55.910Z,9.40
2018-04-25T07:45:55.912Z,10.10
2018-04-25T07:46:55.911Z,10.40
2018-04-25T07:47:55.909Z,10.20
2018-04-25T07:48:55.917Z,10.70
2018-04-25T07:49:55.915Z,11.10
2018-04-25T07:50:55.909Z,10.80
2018-04-25T07:51:55.910Z,11.10
2018-04-25T07:52:55.911Z,11.30
2018-04-25T07:53:55.913Z,10.70
2018-04-25T07:54:55.914Z,10.80
2018-04-25T07:55:55.916Z,11.00
2018-04-25T07:56:55.917Z,9.70
2018-04-25T07:57:55.919Z,9.80
2018-04-25T07:58:55.922Z,9.80
2018-04-25T07:59:55.931Z,10.30
2018-04-25T08:00:55.931Z,10.30
2018-04-25T08:01:55.935Z,10.80
2018-04-25T08:02:55.936Z,11.00
2018-04-25T08:03:55.944Z,10.90
2018-04-25T08:04:55.941Z,10.80
2018-04-25T08:05:56.013Z,10.90
2018-04-25T08:06:55.951Z,10.70
2018-04-25T08:07:55.953Z,10.80
2018-04-25T08:08:55.960Z,11.30
2018-04-25T08:09:55.964Z,11.20
2018-04-25T08:10:55.965Z,10.90
2018-04-25T08:11:55.969Z,10.20
2018-04-25T08:12:55.976Z,10.30
2018-04-25T08:13:55.981Z,10.00
2018-04-25T08:14:55.981Z,10.80
2018-04-25T08:15:55.985Z,10.70
2018-04-25T08:16:55.989Z,10.70
2018-04-25T08:17:56.011Z,11.30
2018-04-25T08:18:55.997Z,11.40
2018-04-25T08:19:56.003Z,12.10
2018-04-25T08:20:56.007Z,12.20
2018-04-25T08:21:56.010Z,12.40
2018-04-25T08:22:56.019Z,13.00
2018-04-25T08:23:56.022Z,12.80
2018-04-25T08:24:56.020Z,12.30
2018-04-25T08:25:56.024Z,12.20
2018-04-25T08:26:56.033Z,12.20
2018-04-25T08:27:56.035Z,11.90
2018-04-25T08:28:56.033Z,12.80
2018-04-25T08:29:56.038Z,12.20
2018-04-25T08:30:56.040Z,12.10
2018-04-25T08:31:56.043Z,11.90
2018-04-25T08:32:56.045Z,12.10
2018-04-25T08:33:56.047Z,11.50
2018-04-25T08:34:56.067Z,12.00
2018-04-25T08:35:56.053Z,11.40
2018-04-25T08:36:56.055Z,11.60
2018-04-25T08:37:56.056Z,11.60
2018-04-25T08:38:56.058Z,12.50
2018-04-25T08:39:56.063Z,12.80
2018-04-25T08:40:56.065Z,11.80
2018-04-25T08:41:56.069Z,12.40
2018-04-25T08:42:56.064Z,10.20
2018-04-25T08:43:56.065Z,11.20
2018-04-25T08:44:56.184Z,9.60
2018-04-25T08:45:56.071Z,10.20
2018-04-25T08:46:56.069Z,9.80
2018-04-25T08:47:56.069Z,10.80
2018-04-25T08:48:56.070Z,10.50
2018-04-25T08:49:56.069Z,11.50
2018-04-25T08:50:56.072Z,10.60
2018-04-25T08:51:56.071Z,12.50
2018-04-25T08:52:56.071Z,11.70
2018-04-25T08:53:56.072Z,12.90
2018-04-25T08:54:56.077Z,12.50
2018-04-25T08:55:56.077Z,13.10
2018-04-25T08:56:56.071Z,13.30
2018-04-25T08:57:56.071Z,13.00
2018-04-25T08:58:56.075Z,11.40
2018-04-25T08:59:56.075Z,13.00
2018-04-25T09:00:56.070Z,13.20
2018-04-25T09:01:56.071Z,12.70
2018-04-25T09:02:56.076Z,13.50
2018-04-25T09:03:56.071Z,10.90
2018-04-25T09:04:56.071Z,10.30
2018-04-25T09:05:56.072Z,11.50
2018-04-25T09:06:56.077Z,11.00
2018-04-25T09:07:56.082Z,10.20
2018-04-25T09:08:56.077Z,552.20
2018-04-25T09:09:56.081Z,689.40
2018-04-25T09:10:56.085Z,689.90
2018-04-25T09:11:56.089Z,209.40
2018-04-25T09:12:56.093Z,247.20
2018-04-25T09:13:56.103Z,119.10
2018-04-25T09:14:56.106Z,68.00
2018-04-25T09:15:56.116Z,15.80
2018-04-25T09:16:56.122Z,32.80
2018-04-25T09:17:56.126Z,79.40
2018-04-25T09:18:56.138Z,24.50
2018-04-25T09:19:56.147Z,17.40
2018-04-25T09:20:56.152Z,6.00
2018-04-25T09:21:56.163Z,4.90
2018-04-25T09:22:56.174Z,4.80
2018-04-25T09:23:56.185Z,4.10
2018-04-25T09:24:56.202Z,4.90
2018-04-25T09:25:56.214Z,5.20
2018-04-25T09:26:56.223Z,5.70
2018-04-25T09:27:56.241Z,5.50
2018-04-25T09:28:56.247Z,5.30
2018-04-25T09:29:56.260Z,5.50
2018-04-25T09:30:56.273Z,5.50
2018-04-25T09:31:56.285Z,6.60
2018-04-25T09:32:56.300Z,6.60
2018-04-25T09:33:56.309Z,7.00
2018-04-25T09:34:56.324Z,8.00
2018-04-25T09:35:56.333Z,8.60
2018-04-25T09:36:56.349Z,9.20
2018-04-25T09:37:56.359Z,10.20
2018-04-25T09:38:56.370Z,11.00
2018-04-25T09:39:56.381Z,10.80
2018-04-25T09:40:56.386Z,10.50
2018-04-25T09:41:56.397Z,11.10
2018-04-25T09:42:56.407Z,11.40
2018-04-25T09:43:56.421Z,11.10
2018-04-25T09:44:56.424Z,11.20
2018-04-25T09:45:56.499Z,10.80
2018-04-25T09:46:56.441Z,11.00
2018-04-25T09:47:56.448Z,10.10
2018-04-25T09:48:56.457Z,9.90
2018-04-25T09:49:56.465Z,9.90
2018-04-25T09:50:56.476Z,9.40
2018-04-25T09:51:56.487Z,8.10
2018-04-25T09:52:56.488Z,7.80
2018-04-25T09:53:56.495Z,7.80
2018-04-25T09:54:56.504Z,7.90
2018-04-25T09:55:56.513Z,7.20
2018-04-25T09:56:56.525Z,6.60
2018-04-25T09:57:56.578Z,7.00
2018-04-25T09:58:56.539Z,6.30
2018-04-25T09:59:56.550Z,6.80
2018-04-25T10:00:56.558Z,6.80
2018-04-25T10:01:56.568Z,7.70
2018-04-25T10:02:56.579Z,8.10
2018-04-25T10:03:56.622Z,8.30
2018-04-25T10:04:56.595Z,8.60
2018-04-25T10:05:56.604Z,9.00
2018-04-25T10:06:56.611Z,9.50
2018-04-25T10:07:56.620Z,8.90
2018-04-25T10:08:56.631Z,9.50
2018-04-25T10:09:56.639Z,9.80
2018-04-25T10:10:56.732Z,9.40
2018-04-25T10:11:56.652Z,9.80
2018-04-25T10:12:56.657Z,9.80
2018-04-25T10:13:56.665Z,9.60
2018-04-25T10:14:56.681Z,9.40
2018-04-25T10:15:56.680Z,9.30
2018-04-25T10:16:56.694Z,9.00
2018-04-25T10:17:56.700Z,9.00
2018-04-25T10:18:56.701Z,9.20
2018-04-25T10:19:56.709Z,10.20
2018-04-25T10:20:56.721Z,10.00
2018-04-25T10:21:56.727Z,9.00
2018-04-25T10:22:56.731Z,8.70
2018-04-25T10:23:56.754Z,9.30
2018-04-25T10:24:56.746Z,9.20
2018-04-25T10:25:56.754Z,9.10
2018-04-25T10:26:56.761Z,9.00
2018-04-25T10:27:56.768Z,9.40
2018-04-25T10:28:56.773Z,8.90
2018-04-25T10:29:56.781Z,10.00
2018-04-25T10:30:56.795Z,9.80
2018-04-25T10:31:56.830Z,10.50
2018-04-25T10:32:56.801Z,9.20
2018-04-25T10:33:56.808Z,9.20
2018-04-25T10:34:56.820Z,8.60
2018-04-25T10:35:56.827Z,8.80
2018-04-25T10:36:56.831Z,9.00
2018-04-25T10:37:56.839Z,9.30
2018-04-25T10:38:56.921Z,9.90
2018-04-25T10:39:56.855Z,10.20
2018-04-25T10:40:56.859Z,9.60
2018-04-25T10:41:56.867Z,7.70
2018-04-25T10:42:56.875Z,7.80
2018-04-25T10:43:56.883Z,7.90
2018-04-25T10:44:56.892Z,8.40
2018-04-25T10:45:56.899Z,8.30
2018-04-25T10:46:56.907Z,8.30
2018-04-25T10:47:56.916Z,8.40
2018-04-25T10:48:56.928Z,8.00
2018-04-25T10:49:56.936Z,8.00
2018-04-25T10:50:56.951Z,7.80
2018-04-25T10:51:56.953Z,8.40
2018-04-25T10:52:56.963Z,8.60
2018-04-25T10:53:56.975Z,8.50
2018-04-25T10:54:56.978Z,8.80
2018-04-25T10:55:56.989Z,10.20
2018-04-25T10:56:56.996Z,10.40
2018-04-25T10:57:57.011Z,9.00
2018-04-25T10:58:57.015Z,8.80
2018-04-25T10:59:57.023Z,10.50
2018-04-25T11:00:57.033Z,10.10
2018-04-25T11:01:57.041Z,9.70
2018-04-25T11:02:57.055Z,9.40
2018-04-25T11:03:57.063Z,9.50
2018-04-25T11:04:57.067Z,9.50
2018-04-25T11:05:57.076Z,9.30
2018-04-25T11:06:57.091Z,9.20
2018-04-25T11:07:57.100Z,9.20
2018-04-25T11:08:57.108Z,9.20
2018-04-25T11:09:57.116Z,8.90
2018-04-25T11:10:57.128Z,8.00
2018-04-25T11:11:57.140Z,8.50
2018-04-25T11:12:57.151Z,9.10
2018-04-25T11:13:57.161Z,9.70
2018-04-25T11:14:57.172Z,11.40
2018-04-25T11:15:57.183Z,12.20
2018-04-25T11:16:57.193Z,11.70
2018-04-25T11:17:57.202Z,11.10
2018-04-25T11:18:57.214Z,11.40
2018-04-25T11:19:57.223Z,11.20
2018-04-25T11:20:57.235Z,11.30
2018-04-25T11:21:57.251Z,11.10
2018-04-25T11:22:57.250Z,10.80
2018-04-25T11:23:57.260Z,11.50
2018-04-25T11:24:57.272Z,12.30
2018-04-25T11:25:57.282Z,11.00
2018-04-25T11:26:57.287Z,11.80
2018-04-25T11:27:57.296Z,12.40
2018-04-25T11:28:57.305Z,12.10
2018-04-25T11:29:57.312Z,12.20
2018-04-25T11:30:57.322Z,12.20
2018-04-25T11:31:57.334Z,12.70
2018-04-25T11:32:57.337Z,12.80
2018-04-25T11:33:57.344Z,12.80
2018-04-25T11:34:57.355Z,13.90
2018-04-25T11:35:57.362Z,14.20
2018-04-25T11:36:57.365Z,14.10
2018-04-25T11:37:57.372Z,13.80
2018-04-25T11:38:57.382Z,14.00
2018-04-25T11:39:57.390Z,13.90
2018-04-25T11:40:57.392Z,13.90
2018-04-25T11:41:57.398Z,13.20
2018-04-25T11:42:57.405Z,13.10
2018-04-25T11:43:57.410Z,12.70
2018-04-25T11:44:57.415Z,13.30
2018-04-25T11:45:57.422Z,13.60
2018-04-25T11:46:57.430Z,13.60
2018-04-25T11:47:57.434Z,14.30
2018-04-25T11:48:57.437Z,14.10
2018-04-25T11:49:57.443Z,13.10
2018-04-25T11:50:57.450Z,13.30
2018-04-25T11:51:57.454Z,13.90
2018-04-25T11:52:57.464Z,14.00
2018-04-25T11:53:57.481Z,14.30
2018-04-25T11:54:57.468Z,14.50
2018-04-25T11:55:57.475Z,14.50
2018-04-25T11:56:57.482Z,14.80
2018-04-25T11:57:57.487Z,15.30
2018-04-25T11:58:57.488Z,14.80
2018-04-25T11:59:57.493Z,14.10
2018-04-25T12:00:57.501Z,14.30
2018-04-25T12:01:57.503Z,14.80
2018-04-25T12:02:57.623Z,13.70
2018-04-25T12:03:57.511Z,13.30
2018-04-25T12:04:57.541Z,13.30
2018-04-25T12:05:57.528Z,14.50
2018-04-25T12:06:57.528Z,14.40
2018-04-25T12:07:57.537Z,14.50
2018-04-25T12:08:57.532Z,14.60
2018-04-25T12:09:57.538Z,13.60
2018-04-25T12:10:57.546Z,13.00
2018-04-25T12:11:57.550Z,12.60
2018-04-25T12:12:57.548Z,13.10
2018-04-25T12:13:57.555Z,12.90
2018-04-25T12:14:57.561Z,13.80
2018-04-25T12:15:57.567Z,14.30
2018-04-25T12:16:57.566Z,15.10
2018-04-25T12:17:57.570Z,14.10
2018-04-25T12:18:57.578Z,13.80
2018-04-25T12:19:57.584Z,13.90
2018-04-25T12:20:57.581Z,13.10
2018-04-25T12:21:57.585Z,13.50
2018-04-25T12:22:57.589Z,13.40
2018-04-25T12:23:57.594Z,13.10
2018-04-25T12:24:57.596Z,13.10
2018-04-25T12:25:57.602Z,12.60
2018-04-25T12:26:57.605Z,12.30
2018-04-25T12:27:57.608Z,12.20
2018-04-25T12:28:57.637Z,12.50
2018-04-25T12:29:57.616Z,12.20
2018-04-25T12:30:57.623Z,11.50
2018-04-25T12:31:57.627Z,12.50
2018-04-25T12:32:57.626Z,12.90
2018-04-25T12:33:57.629Z,12.70
2018-04-25T12:34:57.635Z,12.80
2018-04-25T12:35:57.638Z,13.00
2018-04-25T12:36:57.648Z,13.00
2018-04-25T12:37:57.647Z,12.80
2018-04-25T12:38:57.647Z,12.80
2018-04-25T12:39:57.651Z,13.20
2018-04-25T12:40:57.654Z,13.30
2018-04-25T12:41:57.657Z,12.70
2018-04-25T12:42:57.659Z,12.70
2018-04-25T12:43:57.662Z,12.20
2018-04-25T12:44:57.665Z,11.90
2018-04-25T12:45:57.669Z,11.50
2018-04-25T12:46:57.670Z,11.80
2018-04-25T12:47:57.675Z,11.70
2018-04-25T12:48:57.681Z,11.90
2018-04-25T12:49:57.683Z,11.50
2018-04-25T12:50:57.686Z,11.70
2018-04-25T12:51:57.690Z,11.50
2018-04-25T12:52:57.692Z,11.40
2018-04-25T12:53:57.764Z,11.00
2018-04-25T12:54:57.693Z,11.30
2018-04-25T12:55:57.697Z,10.80
2018-04-25T12:56:57.703Z,10.80
2018-04-25T12:57:57.702Z,10.80
2018-04-25T12:58:57.706Z,10.30